sensor_id;sensor_type;location;lat;lon;timestamp;P1;durP1;ratioP1;P2;durP2;ratioP2
28926;SDS011;16038;47.692;9.400;2022-07-25T00:00:21;14.07;;;9.85;;
28926;SDS011;16038;47.692;9.400;2022-07-25T00:02:48;13.05;;;10.90;;
28926;SDS011;16038;47.692;9.400;2022-07-25T00:05:13;11.13;;;9.55;;
28926;SDS011;16038;47.692;9.400;2022-07-25T00:07:39;13.38;;;9.55;;
28926;SDS011;16038;47.692;9.400;2022-07-25T00:10:04;13.40;;;9.90;;
28926;SDS011;16038;47.692;9.400;2022-07-25T00:12:30;11.98;;;9.45;;
28926;SDS011;16038;47.692;9.400;2022-07-25T00:14:56;11.98;;;9.07;;
28926;SDS011;16038;47.692;9.400;2022-07-25T00:17:21;11.43;;;9.20;;
28926;SDS011;16038;47.692;9.400;2022-07-25T00:19:46;13.50;;;9.80;;
28926;SDS011;16038;47.692;9.400;2022-07-25T00:22:12;12.98;;;9.85;;
28926;SDS011;16038;47.692;9.400;2022-07-25T00:24:37;12.30;;;10.52;;
28926;SDS011;16038;47.692;9.400;2022-07-25T00:27:03;15.18;;;10.48;;
28926;SDS011;16038;47.692;9.400;2022-07-25T00:29:28;15.38;;;10.55;;
28926;SDS011;16038;47.692;9.400;2022-07-25T00:31:54;13.98;;;9.73;;
28926;SDS011;16038;47.692;9.400;2022-07-25T00:34:20;16.17;;;11.25;;
28926;SDS011;16038;47.692;9.400;2022-07-25T00:36:45;11.32;;;9.50;;
28926;SDS011;16038;47.692;9.400;2022-07-25T00:39:11;12.27;;;9.13;;
28926;SDS011;16038;47.692;9.400;2022-07-25T00:41:36;13.18;;;10.05;;
28926;SDS011;16038;47.692;9.400;2022-07-25T00:44:02;13.32;;;9.60;;
28926;SDS011;16038;47.692;9.400;2022-07-25T00:46:27;13.07;;;9.20;;
28926;SDS011;16038;47.692;9.400;2022-07-25T00:48:52;12.82;;;9.82;;
28926;SDS011;16038;47.692;9.400;2022-07-25T00:51:18;10.90;;;9.23;;
28926;SDS011;16038;47.692;9.400;2022-07-25T00:53:43;11.45;;;9.60;;
28926;SDS011;16038;47.692;9.400;2022-07-25T00:56:09;13.68;;;8.80;;
28926;SDS011;16038;47.692;9.400;2022-07-25T00:58:34;13.57;;;8.98;;
28926;SDS011;16038;47.692;9.400;2022-07-25T01:01:00;12.52;;;8.95;;
28926;SDS011;16038;47.692;9.400;2022-07-25T01:03:26;14.32;;;9.43;;
28926;SDS011;16038;47.692;9.400;2022-07-25T01:05:51;11.77;;;9.25;;
28926;SDS011;16038;47.692;9.400;2022-07-25T01:08:18;13.30;;;9.88;;
28926;SDS011;16038;47.692;9.400;2022-07-25T01:10:45;13.43;;;9.52;;
28926;SDS011;16038;47.692;9.400;2022-07-25T01:13:11;13.35;;;9.90;;
28926;SDS011;16038;47.692;9.400;2022-07-25T01:15:37;11.82;;;9.73;;
28926;SDS011;16038;47.692;9.400;2022-07-25T01:18:02;15.27;;;9.40;;
28926;SDS011;16038;47.692;9.400;2022-07-25T01:20:29;13.77;;;10.70;;
28926;SDS011;16038;47.692;9.400;2022-07-25T01:22:56;12.80;;;9.88;;
28926;SDS011;16038;47.692;9.400;2022-07-25T01:25:22;13.30;;;9.65;;
28926;SDS011;16038;47.692;9.400;2022-07-25T01:27:48;13.43;;;10.20;;
28926;SDS011;16038;47.692;9.400;2022-07-25T01:30:15;13.63;;;10.52;;
28926;SDS011;16038;47.692;9.400;2022-07-25T01:32:41;13.23;;;9.60;;
28926;SDS011;16038;47.692;9.400;2022-07-25T01:35:08;16.17;;;9.85;;
28926;SDS011;16038;47.692;9.400;2022-07-25T01:37:34;13.82;;;10.32;;
28926;SDS011;16038;47.692;9.400;2022-07-25T01:40:00;16.52;;;10.38;;
28926;SDS011;16038;47.692;9.400;2022-07-25T01:42:26;14.63;;;10.27;;
28926;SDS011;16038;47.692;9.400;2022-07-25T01:44:52;16.40;;;9.80;;
28926;SDS011;16038;47.692;9.400;2022-07-25T01:47:17;21.15;;;9.85;;
28926;SDS011;16038;47.692;9.400;2022-07-25T01:49:43;13.20;;;9.90;;
28926;SDS011;16038;47.692;9.400;2022-07-25T01:52:09;18.20;;;10.80;;
28926;SDS011;16038;47.692;9.400;2022-07-25T01:54:36;13.05;;;10.02;;
28926;SDS011;16038;47.692;9.400;2022-07-25T01:57:01;19.00;;;10.45;;
28926;SDS011;16038;47.692;9.400;2022-07-25T01:59:29;12.93;;;9.60;;
28926;SDS011;16038;47.692;9.400;2022-07-25T02:01:54;14.43;;;9.05;;
28926;SDS011;16038;47.692;9.400;2022-07-25T02:04:19;14.55;;;10.02;;
28926;SDS011;16038;47.692;9.400;2022-07-25T02:06:45;12.18;;;9.82;;
28926;SDS011;16038;47.692;9.400;2022-07-25T02:09:10;14.85;;;10.45;;
28926;SDS011;16038;47.692;9.400;2022-07-25T02:11:36;19.20;;;10.00;;
28926;SDS011;16038;47.692;9.400;2022-07-25T02:14:01;13.45;;;10.02;;
28926;SDS011;16038;47.692;9.400;2022-07-25T02:16:27;14.48;;;10.02;;
28926;SDS011;16038;47.692;9.400;2022-07-25T02:18:52;15.85;;;10.05;;
28926;SDS011;16038;47.692;9.400;2022-07-25T02:21:18;14.10;;;10.32;;
28926;SDS011;16038;47.692;9.400;2022-07-25T02:23:43;15.32;;;9.75;;
28926;SDS011;16038;47.692;9.400;2022-07-25T02:26:09;15.35;;;10.23;;
28926;SDS011;16038;47.692;9.400;2022-07-25T02:28:35;15.52;;;9.77;;
28926;SDS011;16038;47.692;9.400;2022-07-25T02:31:00;20.08;;;10.07;;
28926;SDS011;16038;47.692;9.400;2022-07-25T02:33:26;16.20;;;10.23;;
28926;SDS011;16038;47.692;9.400;2022-07-25T02:35:52;13.48;;;10.05;;
28926;SDS011;16038;47.692;9.400;2022-07-25T02:38:17;13.18;;;9.85;;
28926;SDS011;16038;47.692;9.400;2022-07-25T02:40:47;16.38;;;10.48;;
28926;SDS011;16038;47.692;9.400;2022-07-25T02:45:38;17.48;;;10.68;;
28926;SDS011;16038;47.692;9.400;2022-07-25T02:48:04;14.75;;;9.90;;
28926;SDS011;16038;47.692;9.400;2022-07-25T02:50:30;14.15;;;10.75;;
28926;SDS011;16038;47.692;9.400;2022-07-25T02:52:55;12.57;;;9.95;;
28926;SDS011;16038;47.692;9.400;2022-07-25T02:55:20;17.13;;;10.02;;
28926;SDS011;16038;47.692;9.400;2022-07-25T02:57:46;14.10;;;10.10;;
28926;SDS011;16038;47.692;9.400;2022-07-25T03:00:12;12.48;;;9.63;;
28926;SDS011;16038;47.692;9.400;2022-07-25T03:02:38;15.73;;;9.88;;
28926;SDS011;16038;47.692;9.400;2022-07-25T03:05:05;13.18;;;10.13;;
28926;SDS011;16038;47.692;9.400;2022-07-25T03:07:34;13.35;;;9.68;;
28926;SDS011;16038;47.692;9.400;2022-07-25T03:10:00;15.73;;;10.00;;
28926;SDS011;16038;47.692;9.400;2022-07-25T03:12:26;17.70;;;11.32;;
28926;SDS011;16038;47.692;9.400;2022-07-25T03:14:51;15.07;;;9.80;;
28926;SDS011;16038;47.692;9.400;2022-07-25T03:17:17;13.55;;;10.27;;
28926;SDS011;16038;47.692;9.400;2022-07-25T03:19:42;13.43;;;9.68;;
28926;SDS011;16038;47.692;9.400;2022-07-25T03:22:08;15.13;;;10.57;;
28926;SDS011;16038;47.692;9.400;2022-07-25T03:24:33;13.57;;;9.77;;
28926;SDS011;16038;47.692;9.400;2022-07-25T03:26:59;15.35;;;10.40;;
28926;SDS011;16038;47.692;9.400;2022-07-25T03:29:24;11.25;;;9.70;;
28926;SDS011;16038;47.692;9.400;2022-07-25T03:31:50;15.75;;;9.38;;
28926;SDS011;16038;47.692;9.400;2022-07-25T03:34:15;13.77;;;9.85;;
28926;SDS011;16038;47.692;9.400;2022-07-25T03:36:41;15.77;;;10.68;;
28926;SDS011;16038;47.692;9.400;2022-07-25T03:39:06;16.38;;;10.48;;
28926;SDS011;16038;47.692;9.400;2022-07-25T03:41:32;15.10;;;10.55;;
28926;SDS011;16038;47.692;9.400;2022-07-25T03:43:57;15.82;;;9.95;;
28926;SDS011;16038;47.692;9.400;2022-07-25T03:46:23;13.60;;;10.68;;
28926;SDS011;16038;47.692;9.400;2022-07-25T03:48:48;15.35;;;10.65;;
28926;SDS011;16038;47.692;9.400;2022-07-25T03:51:13;12.93;;;10.00;;
28926;SDS011;16038;47.692;9.400;2022-07-25T03:53:39;16.25;;;10.88;;
28926;SDS011;16038;47.692;9.400;2022-07-25T03:56:23;20.73;;;11.98;;
28926;SDS011;16038;47.692;9.400;2022-07-25T03:58:48;18.38;;;11.80;;
28926;SDS011;16038;47.692;9.400;2022-07-25T04:01:14;17.77;;;12.45;;
28926;SDS011;16038;47.692;9.400;2022-07-25T04:03:39;15.82;;;11.95;;
28926;SDS011;16038;47.692;9.400;2022-07-25T04:06:04;17.58;;;12.65;;
28926;SDS011;16038;47.692;9.400;2022-07-25T04:08:30;17.83;;;12.27;;
28926;SDS011;16038;47.692;9.400;2022-07-25T04:10:55;18.52;;;12.68;;
28926;SDS011;16038;47.692;9.400;2022-07-25T04:13:20;19.98;;;12.70;;
28926;SDS011;16038;47.692;9.400;2022-07-25T04:15:46;19.40;;;13.10;;
28926;SDS011;16038;47.692;9.400;2022-07-25T04:18:11;20.85;;;12.35;;
28926;SDS011;16038;47.692;9.400;2022-07-25T04:20:37;19.00;;;11.90;;
28926;SDS011;16038;47.692;9.400;2022-07-25T04:23:02;14.90;;;12.38;;
28926;SDS011;16038;47.692;9.400;2022-07-25T04:25:28;16.98;;;11.95;;
28926;SDS011;16038;47.692;9.400;2022-07-25T04:27:53;15.68;;;10.95;;
28926;SDS011;16038;47.692;9.400;2022-07-25T04:30:19;14.02;;;10.95;;
28926;SDS011;16038;47.692;9.400;2022-07-25T04:32:44;16.58;;;10.05;;
28926;SDS011;16038;47.692;9.400;2022-07-25T04:35:10;15.95;;;10.07;;
28926;SDS011;16038;47.692;9.400;2022-07-25T04:37:35;15.20;;;10.50;;
28926;SDS011;16038;47.692;9.400;2022-07-25T04:40:02;13.05;;;10.35;;
28926;SDS011;16038;47.692;9.400;2022-07-25T04:42:29;16.30;;;10.57;;
28926;SDS011;16038;47.692;9.400;2022-07-25T04:44:54;18.10;;;10.63;;
28926;SDS011;16038;47.692;9.400;2022-07-25T04:47:20;17.23;;;10.20;;
28926;SDS011;16038;47.692;9.400;2022-07-25T04:49:45;13.30;;;10.07;;
28926;SDS011;16038;47.692;9.400;2022-07-25T04:52:10;17.02;;;10.45;;
28926;SDS011;16038;47.692;9.400;2022-07-25T04:54:36;18.42;;;10.32;;
28926;SDS011;16038;47.692;9.400;2022-07-25T04:57:01;13.07;;;10.23;;
28926;SDS011;16038;47.692;9.400;2022-07-25T04:59:29;15.02;;;10.02;;
28926;SDS011;16038;47.692;9.400;2022-07-25T05:01:54;16.63;;;10.82;;
28926;SDS011;16038;47.692;9.400;2022-07-25T05:04:19;15.55;;;11.70;;
28926;SDS011;16038;47.692;9.400;2022-07-25T05:06:45;16.20;;;11.13;;
28926;SDS011;16038;47.692;9.400;2022-07-25T05:09:10;14.68;;;11.32;;
28926;SDS011;16038;47.692;9.400;2022-07-25T05:11:36;16.58;;;10.73;;
28926;SDS011;16038;47.692;9.400;2022-07-25T05:14:01;13.55;;;9.68;;
28926;SDS011;16038;47.692;9.400;2022-07-25T05:16:26;11.23;;;8.95;;
28926;SDS011;16038;47.692;9.400;2022-07-25T05:18:52;12.95;;;8.75;;
28926;SDS011;16038;47.692;9.400;2022-07-25T05:21:17;12.73;;;8.52;;
28926;SDS011;16038;47.692;9.400;2022-07-25T05:23:42;10.13;;;7.10;;
28926;SDS011;16038;47.692;9.400;2022-07-25T05:26:08;12.30;;;8.02;;
28926;SDS011;16038;47.692;9.400;2022-07-25T05:28:33;11.00;;;7.78;;
28926;SDS011;16038;47.692;9.400;2022-07-25T05:30:59;11.20;;;7.82;;
28926;SDS011;16038;47.692;9.400;2022-07-25T05:33:24;10.25;;;7.85;;
28926;SDS011;16038;47.692;9.400;2022-07-25T05:35:50;13.73;;;7.25;;
28926;SDS011;16038;47.692;9.400;2022-07-25T05:38:16;13.32;;;7.25;;
28926;SDS011;16038;47.692;9.400;2022-07-25T05:40:41;9.00;;;7.60;;
28926;SDS011;16038;47.692;9.400;2022-07-25T05:43:07;12.60;;;7.85;;
28926;SDS011;16038;47.692;9.400;2022-07-25T05:45:33;11.00;;;7.40;;
28926;SDS011;16038;47.692;9.400;2022-07-25T05:47:58;10.95;;;7.32;;
28926;SDS011;16038;47.692;9.400;2022-07-25T05:50:24;12.70;;;7.72;;
28926;SDS011;16038;47.692;9.400;2022-07-25T05:52:50;10.77;;;6.57;;
28926;SDS011;16038;47.692;9.400;2022-07-25T05:55:15;13.02;;;7.82;;
28926;SDS011;16038;47.692;9.400;2022-07-25T05:57:41;13.52;;;8.52;;
28926;SDS011;16038;47.692;9.400;2022-07-25T06:00:07;8.98;;;7.10;;
28926;SDS011;16038;47.692;9.400;2022-07-25T06:02:33;13.20;;;11.40;;
28926;SDS011;16038;47.692;9.400;2022-07-25T06:04:58;12.30;;;7.57;;
28926;SDS011;16038;47.692;9.400;2022-07-25T06:07:24;9.32;;;7.53;;
28926;SDS011;16038;47.692;9.400;2022-07-25T06:09:49;8.15;;;6.38;;
28926;SDS011;16038;47.692;9.400;2022-07-25T06:12:15;10.43;;;7.32;;
28926;SDS011;16038;47.692;9.400;2022-07-25T06:14:41;15.70;;;7.18;;
28926;SDS011;16038;47.692;9.400;2022-07-25T06:17:06;10.38;;;7.63;;
28926;SDS011;16038;47.692;9.400;2022-07-25T06:19:31;8.25;;;7.00;;
28926;SDS011;16038;47.692;9.400;2022-07-25T06:21:57;8.93;;;7.00;;
28926;SDS011;16038;47.692;9.400;2022-07-25T06:24:22;8.23;;;6.60;;
28926;SDS011;16038;47.692;9.400;2022-07-25T06:26:48;14.45;;;8.18;;
28926;SDS011;16038;47.692;9.400;2022-07-25T06:29:13;9.50;;;7.82;;
28926;SDS011;16038;47.692;9.400;2022-07-25T06:31:38;8.70;;;7.43;;
28926;SDS011;16038;47.692;9.400;2022-07-25T06:34:04;9.18;;;7.03;;
28926;SDS011;16038;47.692;9.400;2022-07-25T06:36:29;8.88;;;7.10;;
28926;SDS011;16038;47.692;9.400;2022-07-25T06:38:55;13.32;;;8.02;;
28926;SDS011;16038;47.692;9.400;2022-07-25T06:41:21;8.30;;;6.70;;
28926;SDS011;16038;47.692;9.400;2022-07-25T06:43:46;8.52;;;7.38;;
28926;SDS011;16038;47.692;9.400;2022-07-25T06:46:11;10.07;;;6.78;;
28926;SDS011;16038;47.692;9.400;2022-07-25T06:48:37;11.40;;;7.67;;
28926;SDS011;16038;47.692;9.400;2022-07-25T06:51:02;9.32;;;7.50;;
28926;SDS011;16038;47.692;9.400;2022-07-25T06:53:28;13.85;;;8.27;;
28926;SDS011;16038;47.692;9.400;2022-07-25T06:55:54;10.50;;;8.38;;
28926;SDS011;16038;47.692;9.400;2022-07-25T06:58:19;8.93;;;7.25;;
28926;SDS011;16038;47.692;9.400;2022-07-25T07:00:45;11.13;;;7.65;;
28926;SDS011;16038;47.692;9.400;2022-07-25T07:03:10;12.75;;;7.95;;
28926;SDS011;16038;47.692;9.400;2022-07-25T07:05:36;9.30;;;7.47;;
28926;SDS011;16038;47.692;9.400;2022-07-25T07:08:04;10.25;;;8.90;;
28926;SDS011;16038;47.692;9.400;2022-07-25T07:10:30;10.73;;;8.90;;
28926;SDS011;16038;47.692;9.400;2022-07-25T07:13:02;11.93;;;8.88;;
28926;SDS011;16038;47.692;9.400;2022-07-25T07:15:33;10.30;;;8.63;;
28926;SDS011;16038;47.692;9.400;2022-07-25T07:17:59;9.82;;;7.63;;
28926;SDS011;16038;47.692;9.400;2022-07-25T07:20:25;12.07;;;8.88;;
28926;SDS011;16038;47.692;9.400;2022-07-25T07:22:50;11.80;;;8.68;;
28926;SDS011;16038;47.692;9.400;2022-07-25T07:25:16;11.63;;;7.90;;
28926;SDS011;16038;47.692;9.400;2022-07-25T07:27:43;12.80;;;8.70;;
28926;SDS011;16038;47.692;9.400;2022-07-25T07:30:10;11.27;;;8.40;;
28926;SDS011;16038;47.692;9.400;2022-07-25T07:32:36;10.27;;;7.82;;
28926;SDS011;16038;47.692;9.400;2022-07-25T07:35:02;10.45;;;8.98;;
28926;SDS011;16038;47.692;9.400;2022-07-25T07:37:28;10.60;;;8.13;;
28926;SDS011;16038;47.692;9.400;2022-07-25T07:39:53;9.90;;;7.82;;
28926;SDS011;16038;47.692;9.400;2022-07-25T07:42:19;11.80;;;7.63;;
28926;SDS011;16038;47.692;9.400;2022-07-25T07:44:44;10.57;;;7.68;;
28926;SDS011;16038;47.692;9.400;2022-07-25T07:47:09;11.53;;;8.47;;
28926;SDS011;16038;47.692;9.400;2022-07-25T07:49:35;10.25;;;8.68;;
28926;SDS011;16038;47.692;9.400;2022-07-25T07:52:00;9.30;;;7.70;;
28926;SDS011;16038;47.692;9.400;2022-07-25T07:54:25;14.70;;;8.85;;
28926;SDS011;16038;47.692;9.400;2022-07-25T07:57:09;10.13;;;8.65;;
28926;SDS011;16038;47.692;9.400;2022-07-25T07:59:35;12.35;;;9.00;;
28926;SDS011;16038;47.692;9.400;2022-07-25T08:02:00;10.48;;;9.13;;
28926;SDS011;16038;47.692;9.400;2022-07-25T08:04:26;10.55;;;9.10;;
28926;SDS011;16038;47.692;9.400;2022-07-25T08:06:51;11.30;;;9.70;;
28926;SDS011;16038;47.692;9.400;2022-07-25T08:09:17;12.18;;;8.77;;
28926;SDS011;16038;47.692;9.400;2022-07-25T08:11:42;11.25;;;9.07;;
28926;SDS011;16038;47.692;9.400;2022-07-25T08:14:07;11.05;;;8.23;;
28926;SDS011;16038;47.692;9.400;2022-07-25T08:16:33;10.48;;;8.90;;
28926;SDS011;16038;47.692;9.400;2022-07-25T08:18:58;10.00;;;8.57;;
28926;SDS011;16038;47.692;9.400;2022-07-25T08:21:24;9.95;;;8.90;;
28926;SDS011;16038;47.692;9.400;2022-07-25T08:23:49;11.30;;;8.93;;
28926;SDS011;16038;47.692;9.400;2022-07-25T08:26:14;10.90;;;9.20;;
28926;SDS011;16038;47.692;9.400;2022-07-25T08:28:40;12.27;;;8.80;;
28926;SDS011;16038;47.692;9.400;2022-07-25T08:31:06;11.63;;;9.68;;
28926;SDS011;16038;47.692;9.400;2022-07-25T08:33:32;11.43;;;8.50;;
28926;SDS011;16038;47.692;9.400;2022-07-25T08:35:57;12.85;;;9.02;;
28926;SDS011;16038;47.692;9.400;2022-07-25T08:38:23;10.98;;;9.80;;
28926;SDS011;16038;47.692;9.400;2022-07-25T08:40:50;14.05;;;9.40;;
28926;SDS011;16038;47.692;9.400;2022-07-25T08:43:17;11.68;;;9.68;;
28926;SDS011;16038;47.692;9.400;2022-07-25T08:45:44;11.50;;;9.63;;
28926;SDS011;16038;47.692;9.400;2022-07-25T08:48:18;10.85;;;9.35;;
28926;SDS011;16038;47.692;9.400;2022-07-25T08:50:45;12.43;;;9.32;;
28926;SDS011;16038;47.692;9.400;2022-07-25T08:53:12;11.73;;;9.73;;
28926;SDS011;16038;47.692;9.400;2022-07-25T08:55:38;10.65;;;9.38;;
28926;SDS011;16038;47.692;9.400;2022-07-25T08:58:04;10.43;;;9.30;;
28926;SDS011;16038;47.692;9.400;2022-07-25T09:00:29;14.57;;;10.73;;
28926;SDS011;16038;47.692;9.400;2022-07-25T09:02:59;11.88;;;9.63;;
28926;SDS011;16038;47.692;9.400;2022-07-25T09:05:26;11.63;;;10.05;;
28926;SDS011;16038;47.692;9.400;2022-07-25T09:07:53;11.95;;;9.68;;
28926;SDS011;16038;47.692;9.400;2022-07-25T09:10:24;14.20;;;9.80;;
28926;SDS011;16038;47.692;9.400;2022-07-25T09:12:58;13.35;;;9.50;;
28926;SDS011;16038;47.692;9.400;2022-07-25T09:15:29;13.48;;;9.98;;
28926;SDS011;16038;47.692;9.400;2022-07-25T09:17:55;11.88;;;9.63;;
28926;SDS011;16038;47.692;9.400;2022-07-25T09:20:22;10.93;;;8.93;;
28926;SDS011;16038;47.692;9.400;2022-07-25T09:22:48;11.07;;;9.95;;
28926;SDS011;16038;47.692;9.400;2022-07-25T09:27:50;11.90;;;9.20;;
28926;SDS011;16038;47.692;9.400;2022-07-25T09:30:16;10.10;;;9.02;;
28926;SDS011;16038;47.692;9.400;2022-07-25T09:32:41;11.00;;;9.07;;
28926;SDS011;16038;47.692;9.400;2022-07-25T09:35:07;11.48;;;9.70;;
28926;SDS011;16038;47.692;9.400;2022-07-25T09:37:33;10.25;;;9.15;;
28926;SDS011;16038;47.692;9.400;2022-07-25T09:39:58;11.55;;;9.40;;
28926;SDS011;16038;47.692;9.400;2022-07-25T09:42:28;10.43;;;9.32;;
28926;SDS011;16038;47.692;9.400;2022-07-25T09:47:28;15.63;;;8.90;;
28926;SDS011;16038;47.692;9.400;2022-07-25T09:49:55;10.25;;;9.20;;
28926;SDS011;16038;47.692;9.400;2022-07-25T09:52:21;12.77;;;9.15;;
28926;SDS011;16038;47.692;9.400;2022-07-25T09:54:47;10.30;;;9.10;;
28926;SDS011;16038;47.692;9.400;2022-07-25T09:57:12;11.10;;;9.18;;
28926;SDS011;16038;47.692;9.400;2022-07-25T09:59:38;12.27;;;8.02;;
28926;SDS011;16038;47.692;9.400;2022-07-25T10:02:05;9.75;;;7.40;;
28926;SDS011;16038;47.692;9.400;2022-07-25T10:04:40;8.43;;;7.53;;
28926;SDS011;16038;47.692;9.400;2022-07-25T10:07:11;10.23;;;7.68;;
28926;SDS011;16038;47.692;9.400;2022-07-25T10:09:45;10.10;;;7.50;;
28926;SDS011;16038;47.692;9.400;2022-07-25T10:12:18;8.60;;;7.00;;
28926;SDS011;16038;47.692;9.400;2022-07-25T10:15:02;10.23;;;7.68;;
28926;SDS011;16038;47.692;9.400;2022-07-25T10:17:29;9.20;;;7.75;;
28926;SDS011;16038;47.692;9.400;2022-07-25T10:19:54;11.55;;;7.80;;
28926;SDS011;16038;47.692;9.400;2022-07-25T10:22:20;10.00;;;8.38;;
28926;SDS011;16038;47.692;9.400;2022-07-25T10:24:46;12.07;;;7.60;;
28926;SDS011;16038;47.692;9.400;2022-07-25T10:27:12;10.23;;;7.72;;
28926;SDS011;16038;47.692;9.400;2022-07-25T10:29:52;9.35;;;7.60;;
28926;SDS011;16038;47.692;9.400;2022-07-25T10:32:18;10.80;;;8.00;;
28926;SDS011;16038;47.692;9.400;2022-07-25T10:34:53;9.68;;;7.65;;
28926;SDS011;16038;47.692;9.400;2022-07-25T10:37:24;13.73;;;7.47;;
28926;SDS011;16038;47.692;9.400;2022-07-25T10:39:51;9.50;;;7.03;;
28926;SDS011;16038;47.692;9.400;2022-07-25T10:42:20;8.32;;;6.93;;
28926;SDS011;16038;47.692;9.400;2022-07-25T10:44:47;8.13;;;7.32;;
28926;SDS011;16038;47.692;9.400;2022-07-25T10:47:13;10.20;;;7.40;;
28926;SDS011;16038;47.692;9.400;2022-07-25T10:49:43;8.43;;;7.47;;
28926;SDS011;16038;47.692;9.400;2022-07-25T10:52:15;9.63;;;7.57;;
28926;SDS011;16038;47.692;9.400;2022-07-25T10:54:51;9.93;;;7.63;;
28926;SDS011;16038;47.692;9.400;2022-07-25T10:57:19;10.07;;;7.35;;
28926;SDS011;16038;47.692;9.400;2022-07-25T10:59:44;8.77;;;6.80;;
28926;SDS011;16038;47.692;9.400;2022-07-25T11:02:10;13.70;;;7.72;;
28926;SDS011;16038;47.692;9.400;2022-07-25T11:04:44;13.70;;;6.93;;
28926;SDS011;16038;47.692;9.400;2022-07-25T11:07:14;9.95;;;6.70;;
28926;SDS011;16038;47.692;9.400;2022-07-25T11:09:44;12.10;;;7.90;;
28926;SDS011;16038;47.692;9.400;2022-07-25T11:12:21;11.60;;;8.20;;
28926;SDS011;16038;47.692;9.400;2022-07-25T11:14:46;9.30;;;6.80;;
28926;SDS011;16038;47.692;9.400;2022-07-25T11:17:29;11.98;;;7.68;;
28926;SDS011;16038;47.692;9.400;2022-07-25T11:20:05;10.55;;;6.57;;
28926;SDS011;16038;47.692;9.400;2022-07-25T11:22:33;9.43;;;6.47;;
28926;SDS011;16038;47.692;9.400;2022-07-25T11:25:08;9.20;;;6.20;;
28926;SDS011;16038;47.692;9.400;2022-07-25T11:27:35;7.45;;;6.32;;
28926;SDS011;16038;47.692;9.400;2022-07-25T11:30:05;8.43;;;6.28;;
28926;SDS011;16038;47.692;9.400;2022-07-25T11:32:42;8.55;;;5.95;;
28926;SDS011;16038;47.692;9.400;2022-07-25T11:35:10;9.30;;;6.50;;
28926;SDS011;16038;47.692;9.400;2022-07-25T11:37:38;11.98;;;6.00;;
28926;SDS011;16038;47.692;9.400;2022-07-25T11:40:05;9.13;;;5.82;;
28926;SDS011;16038;47.692;9.400;2022-07-25T11:42:39;9.68;;;6.55;;
28926;SDS011;16038;47.692;9.400;2022-07-25T11:45:15;7.78;;;5.97;;
28926;SDS011;16038;47.692;9.400;2022-07-25T11:47:40;9.13;;;6.00;;
28926;SDS011;16038;47.692;9.400;2022-07-25T11:50:06;11.68;;;6.20;;
28926;SDS011;16038;47.692;9.400;2022-07-25T11:52:35;6.53;;;5.82;;
28926;SDS011;16038;47.692;9.400;2022-07-25T11:55:09;9.40;;;6.20;;
28926;SDS011;16038;47.692;9.400;2022-07-25T11:57:40;9.70;;;6.05;;
28926;SDS011;16038;47.692;9.400;2022-07-25T12:00:13;10.45;;;6.00;;
28926;SDS011;16038;47.692;9.400;2022-07-25T12:02:39;8.95;;;5.78;;
28926;SDS011;16038;47.692;9.400;2022-07-25T12:05:08;8.77;;;6.00;;
28926;SDS011;16038;47.692;9.400;2022-07-25T12:07:48;7.72;;;6.03;;
28926;SDS011;16038;47.692;9.400;2022-07-25T12:10:16;7.75;;;5.57;;
28926;SDS011;16038;47.692;9.400;2022-07-25T12:12:47;12.50;;;6.57;;
28926;SDS011;16038;47.692;9.400;2022-07-25T12:15:24;12.02;;;5.82;;
28926;SDS011;16038;47.692;9.400;2022-07-25T12:20:22;32.00;;;9.13;;
28926;SDS011;16038;47.692;9.400;2022-07-25T12:22:53;7.55;;;5.43;;
28926;SDS011;16038;47.692;9.400;2022-07-25T12:25:20;8.10;;;5.77;;
28926;SDS011;16038;47.692;9.400;2022-07-25T12:27:46;17.23;;;5.68;;
28926;SDS011;16038;47.692;9.400;2022-07-25T12:30:11;11.32;;;5.38;;
28926;SDS011;16038;47.692;9.400;2022-07-25T12:32:38;6.47;;;5.10;;
28926;SDS011;16038;47.692;9.400;2022-07-25T12:35:05;12.10;;;5.75;;
28926;SDS011;16038;47.692;9.400;2022-07-25T12:37:32;9.18;;;6.07;;
28926;SDS011;16038;47.692;9.400;2022-07-25T12:39:58;5.93;;;5.00;;
28926;SDS011;16038;47.692;9.400;2022-07-25T12:42:24;7.65;;;4.97;;
28926;SDS011;16038;47.692;9.400;2022-07-25T12:44:51;6.32;;;4.88;;
28926;SDS011;16038;47.692;9.400;2022-07-25T12:47:16;6.78;;;4.30;;
28926;SDS011;16038;47.692;9.400;2022-07-25T12:49:42;6.30;;;4.18;;
28926;SDS011;16038;47.692;9.400;2022-07-25T12:52:07;8.60;;;5.10;;
28926;SDS011;16038;47.692;9.400;2022-07-25T12:54:33;7.00;;;4.72;;
28926;SDS011;16038;47.692;9.400;2022-07-25T12:56:58;5.90;;;4.07;;
28926;SDS011;16038;47.692;9.400;2022-07-25T12:59:24;5.45;;;4.55;;
28926;SDS011;16038;47.692;9.400;2022-07-25T13:01:49;5.82;;;4.13;;
28926;SDS011;16038;47.692;9.400;2022-07-25T13:04:15;6.60;;;4.15;;
28926;SDS011;16038;47.692;9.400;2022-07-25T13:06:41;5.28;;;3.45;;
28926;SDS011;16038;47.692;9.400;2022-07-25T13:09:06;6.45;;;4.82;;
28926;SDS011;16038;47.692;9.400;2022-07-25T13:11:32;6.38;;;4.57;;
28926;SDS011;16038;47.692;9.400;2022-07-25T13:13:57;8.30;;;4.93;;
28926;SDS011;16038;47.692;9.400;2022-07-25T13:16:22;10.85;;;4.93;;
28926;SDS011;16038;47.692;9.400;2022-07-25T13:18:48;6.78;;;4.45;;
28926;SDS011;16038;47.692;9.400;2022-07-25T13:21:14;6.25;;;4.30;;
28926;SDS011;16038;47.692;9.400;2022-07-25T13:23:39;5.93;;;4.60;;
28926;SDS011;16038;47.692;9.400;2022-07-25T13:26:05;5.22;;;4.32;;
28926;SDS011;16038;47.692;9.400;2022-07-25T13:28:31;5.30;;;4.22;;
28926;SDS011;16038;47.692;9.400;2022-07-25T13:30:57;6.70;;;4.40;;
28926;SDS011;16038;47.692;9.400;2022-07-25T13:33:23;12.45;;;4.63;;
28926;SDS011;16038;47.692;9.400;2022-07-25T13:35:48;13.80;;;4.70;;
28926;SDS011;16038;47.692;9.400;2022-07-25T13:38:14;7.40;;;5.05;;
28926;SDS011;16038;47.692;9.400;2022-07-25T13:40:39;8.88;;;5.07;;
28926;SDS011;16038;47.692;9.400;2022-07-25T13:43:08;7.60;;;4.82;;
28926;SDS011;16038;47.692;9.400;2022-07-25T13:45:34;6.50;;;5.03;;
28926;SDS011;16038;47.692;9.400;2022-07-25T13:48:00;6.55;;;5.25;;
28926;SDS011;16038;47.692;9.400;2022-07-25T13:50:25;6.97;;;5.22;;
28926;SDS011;16038;47.692;9.400;2022-07-25T13:52:51;8.80;;;5.28;;
28926;SDS011;16038;47.692;9.400;2022-07-25T13:55:16;8.90;;;5.47;;
28926;SDS011;16038;47.692;9.400;2022-07-25T13:57:43;5.75;;;4.90;;
28926;SDS011;16038;47.692;9.400;2022-07-25T14:00:09;5.95;;;5.03;;
28926;SDS011;16038;47.692;9.400;2022-07-25T14:02:35;8.32;;;5.90;;
28926;SDS011;16038;47.692;9.400;2022-07-25T14:05:01;6.03;;;4.78;;
28926;SDS011;16038;47.692;9.400;2022-07-25T14:07:27;6.93;;;5.20;;
28926;SDS011;16038;47.692;9.400;2022-07-25T14:09:53;8.48;;;4.97;;
28926;SDS011;16038;47.692;9.400;2022-07-25T14:12:18;7.80;;;5.28;;
28926;SDS011;16038;47.692;9.400;2022-07-25T14:14:44;8.23;;;5.20;;
28926;SDS011;16038;47.692;9.400;2022-07-25T14:17:09;9.88;;;5.07;;
28926;SDS011;16038;47.692;9.400;2022-07-25T14:19:35;6.90;;;4.80;;
28926;SDS011;16038;47.692;9.400;2022-07-25T14:22:00;11.20;;;5.47;;
28926;SDS011;16038;47.692;9.400;2022-07-25T14:24:26;11.77;;;5.63;;
28926;SDS011;16038;47.692;9.400;2022-07-25T14:26:51;7.20;;;5.40;;
28926;SDS011;16038;47.692;9.400;2022-07-25T14:29:18;6.63;;;5.18;;
28926;SDS011;16038;47.692;9.400;2022-07-25T14:31:43;7.13;;;5.50;;
28926;SDS011;16038;47.692;9.400;2022-07-25T14:34:09;7.10;;;5.20;;
28926;SDS011;16038;47.692;9.400;2022-07-25T14:36:34;6.15;;;5.13;;
28926;SDS011;16038;47.692;9.400;2022-07-25T14:39:00;7.93;;;5.07;;
28926;SDS011;16038;47.692;9.400;2022-07-25T14:41:26;8.68;;;5.57;;